createdAt,value
2018-04-26T00:02:03.424Z,80.00
2018-04-26T00:08:07.786Z,80.18
2018-04-26T00:14:12.128Z,80.09
2018-04-26T00:20:17.254Z,78.82
2018-04-26T00:26:21.636Z,79.43
2018-04-26T00:32:26.019Z,78.91
2018-04-26T00:38:30.475Z,80.01
2018-04-26T00:44:35.379Z,80.65
2018-04-26T00:50:40.157Z,80.59
2018-04-26T00:56:44.560Z,80.62
2018-04-26T01:02:49.173Z,80.86
2018-04-26T01:08:53.530Z,80.68
2018-04-26T01:14:58.011Z,80.04
2018-04-26T01:21:02.387Z,80.35
2018-04-26T01:27:06.882Z,80.39
2018-04-26T01:33:12.040Z,80.50
2018-04-26T01:39:16.411Z,79.66
2018-04-26T01:45:20.864Z,77.91
2018-04-26T01:51:25.316Z,77.49
2018-04-26T01:57:29.696Z,78.01
2018-04-26T02:03:34.301Z,78.96
2018-04-26T02:09:38.949Z,79.08
2018-04-26T02:15:44.115Z,79.51
2018-04-26T02:21:48.462Z,79.17
2018-04-26T02:27:52.833Z,78.89
2018-04-26T02:33:57.333Z,77.56
2018-04-26T02:40:02.651Z,77.48
2018-04-26T02:46:07.106Z,78.77
2018-04-26T02:52:11.489Z,78.19
2018-04-26T02:58:15.837Z,78.47
2018-04-26T03:04:20.229Z,78.47
2018-04-26T03:10:24.594Z,78.40
2018-04-26T03:16:28.971Z,78.29
2018-04-26T03:22:33.980Z,78.79
2018-04-26T03:28:38.479Z,78.78
2018-04-26T03:34:43.621Z,78.02
2018-04-26T03:40:47.971Z,76.82
2018-04-26T03:46:52.335Z,78.07
2018-04-26T03:52:56.715Z,78.50
2018-04-26T03:59:01.067Z,78.69
2018-04-26T04:05:23.236Z,78.15
2018-04-26T04:11:28.484Z,78.59
2018-04-26T04:17:32.866Z,77.93
2018-04-26T04:23:38.040Z,77.24
2018-04-26T04:29:42.398Z,77.89
2018-04-26T04:35:47.547Z,77.44
2018-04-26T04:41:51.904Z,74.19
2018-04-26T04:47:56.254Z,73.67
2018-04-26T04:54:00.626Z,76.25
2018-04-26T05:00:05.100Z,76.73
2018-04-26T05:06:10.319Z,76.06
2018-04-26T05:12:14.659Z,74.15
2018-04-26T05:18:19.783Z,73.13
2018-04-26T05:24:24.149Z,71.35
2018-04-26T05:30:28.488Z,70.78
2018-04-26T05:36:33.021Z,71.73
2018-04-26T05:42:37.480Z,72.25
2018-04-26T05:48:41.841Z,73.13
2018-04-26T05:54:47.174Z,74.66
2018-04-26T06:00:51.554Z,79.16
2018-04-26T06:06:55.972Z,79.22
2018-04-26T06:13:01.152Z,79.38
2018-04-26T06:19:06.403Z,79.34
2018-04-26T06:25:10.911Z,80.18
2018-04-26T06:31:15.167Z,80.06
2018-04-26T06:37:19.502Z,79.17
2018-04-26T06:43:24.636Z,78.88
2018-04-26T06:49:29.002Z,78.17
2018-04-26T06:55:33.673Z,80.73
2018-04-26T07:01:38.079Z,81.82
2018-04-26T07:07:42.543Z,82.19
2018-04-26T07:13:46.892Z,82.81
2018-04-26T07:19:51.270Z,84.06
2018-04-26T07:25:55.620Z,83.43
2018-04-26T07:32:00.741Z,82.39
2018-04-26T07:38:05.927Z,81.33
2018-04-26T07:44:11.478Z,78.88
2018-04-26T07:50:15.886Z,73.75
2018-04-26T07:56:21.016Z,74.92
2018-04-26T08:02:25.978Z,76.52
2018-04-26T08:08:30.332Z,76.68
2018-04-26T08:14:35.750Z,76.07
2018-04-26T08:20:40.109Z,72.01
2018-04-26T08:26:45.264Z,73.15
2018-04-26T08:32:49.633Z,72.04
2018-04-26T08:38:54.004Z,70.97
2018-04-26T08:44:58.369Z,69.88
2018-04-26T08:51:02.758Z,70.90
2018-04-26T08:57:07.127Z,71.34
2018-04-26T09:03:11.519Z,72.33
2018-04-26T09:09:15.870Z,71.46
2018-04-26T09:15:20.233Z,70.92
2018-04-26T09:21:24.705Z,70.44
2018-04-26T09:27:29.088Z,72.03
2018-04-26T09:33:33.869Z,65.92
2018-04-26T09:39:38.349Z,66.00
2018-04-26T09:45:42.756Z,67.91
2018-04-26T09:51:47.113Z,67.56
2018-04-26T09:57:51.504Z,69.08
2018-04-26T10:03:55.893Z,68.82
2018-04-26T10:10:00.280Z,62.62
2018-04-26T10:16:04.906Z,63.49
2018-04-26T10:22:09.438Z,61.50
2018-04-26T10:28:13.820Z,60.68
2018-04-26T10:34:18.186Z,59.95
2018-04-26T10:40:22.589Z,60.92
2018-04-26T10:46:26.976Z,57.22
2018-04-26T10:52:31.355Z,59.64
2018-04-26T10:58:35.773Z,60.13
2018-04-26T11:04:40.152Z,52.46
2018-04-26T11:10:44.545Z,45.03
2018-04-26T11:16:49.688Z,48.56
2018-04-26T11:22:54.081Z,48.27
2018-04-26T11:28:59.263Z,48.62
2018-04-26T11:35:04.479Z,52.04
2018-04-26T11:41:08.848Z,55.61
2018-04-26T11:47:13.204Z,53.74
2018-04-26T11:53:17.574Z,52.59
2018-04-26T11:59:21.961Z,47.03
2018-04-26T12:05:26.340Z,42.92
2018-04-26T12:11:30.753Z,39.93
2018-04-26T12:17:35.920Z,41.22
2018-04-26T12:23:40.347Z,43.72
2018-04-26T12:29:44.830Z,40.15
2018-04-26T12:35:49.230Z,52.11
2018-04-26T12:41:53.871Z,70.20
2018-04-26T12:47:58.230Z,77.76
2018-04-26T12:54:03.561Z,75.73
2018-04-26T13:00:07.933Z,75.15
2018-04-26T13:06:12.405Z,70.08
2018-04-26T13:12:16.805Z,71.12
2018-04-26T13:18:21.255Z,69.03
2018-04-26T13:24:25.605Z,68.82
2018-04-26T13:30:30.803Z,67.25
2018-04-26T13:36:36.088Z,65.46
2018-04-26T13:42:41.220Z,64.60
2018-04-26T13:48:45.595Z,65.64
2018-04-26T13:54:49.954Z,65.84
2018-04-26T14:00:54.364Z,66.03
2018-04-26T14:06:58.735Z,66.76
2018-04-26T14:13:03.850Z,67.15
2018-04-26T14:19:08.332Z,66.48
2018-04-26T14:25:12.742Z,65.56
2018-04-26T14:31:17.118Z,63.57
2018-04-26T14:37:22.297Z,63.70
2018-04-26T14:43:26.714Z,58.83
2018-04-26T14:49:31.189Z,52.96
2018-04-26T14:55:35.568Z,47.58
2018-04-26T15:01:40.014Z,50.32
2018-04-26T15:07:44.395Z,49.73
2018-04-26T15:13:48.786Z,51.94
2018-04-26T15:19:53.173Z,56.02
2018-04-26T15:25:57.582Z,59.10
2018-04-26T15:32:02.924Z,68.71
2018-04-26T15:38:07.364Z,71.62
2018-04-26T15:44:11.742Z,73.71
2018-04-26T15:57:24.147Z,73.94
2018-04-26T16:03:47.496Z,72.55
2018-04-26T16:10:11.529Z,72.31
2018-04-26T16:16:39.345Z,67.20
2018-04-26T16:30:02.458Z,64.83
2018-04-26T16:42:45.964Z,57.07
2018-04-26T16:48:51.859Z,51.49
2018-04-26T16:54:57.038Z,54.03
2018-04-26T17:01:02.250Z,53.54
2018-04-26T17:07:06.727Z,58.88
2018-04-26T17:13:11.875Z,63.19
2018-04-26T17:19:16.249Z,66.35
2018-04-26T17:25:20.608Z,69.50
2018-04-26T17:31:25.082Z,71.71
2018-04-26T17:37:29.448Z,73.52
2018-04-26T17:43:33.807Z,72.55
2018-04-26T17:49:38.948Z,66.44
2018-04-26T17:55:43.324Z,62.54
2018-04-26T18:01:47.705Z,62.37
2018-04-26T18:07:52.091Z,60.64
2018-04-26T18:13:56.453Z,62.45
2018-04-26T18:20:08.150Z,64.75
2018-04-26T18:26:05.232Z,68.17
2018-04-26T18:32:10.435Z,69.40
2018-04-26T18:38:15.660Z,71.66
2018-04-26T18:44:20.014Z,72.77
2018-04-26T18:50:25.172Z,74.59
2018-04-26T18:56:29.512Z,75.61
2018-04-26T19:02:34.158Z,75.95
2018-04-26T19:08:38.599Z,76.23
2018-04-26T19:14:43.026Z,76.46
2018-04-26T19:20:47.458Z,76.82
2018-04-26T19:26:51.867Z,76.81
2018-04-26T19:32:57.039Z,77.36
2018-04-26T19:39:02.153Z,78.04
2018-04-26T19:45:07.294Z,77.96
2018-04-26T19:51:11.735Z,77.53
2018-04-26T19:57:16.091Z,78.22
2018-04-26T20:03:21.231Z,77.71
2018-04-26T20:09:25.756Z,77.41
2018-04-26T20:15:30.905Z,78.08
2018-04-26T20:21:35.590Z,78.37
2018-04-26T20:27:40.005Z,79.03
2018-04-26T20:33:45.222Z,78.49
2018-04-26T20:39:49.595Z,79.49
2018-04-26T20:45:53.980Z,80.20
2018-04-26T20:51:58.392Z,80.45
2018-04-26T20:58:02.855Z,80.99
2018-04-26T21:04:07.443Z,80.19
2018-04-26T21:10:11.890Z,81.05
2018-04-26T21:16:16.308Z,79.83
2018-04-26T21:22:20.654Z,80.37
2018-04-26T21:28:25.017Z,80.50
2018-04-26T21:34:29.415Z,80.70
2018-04-26T21:40:34.235Z,81.81
2018-04-26T21:46:39.406Z,81.85
2018-04-26T21:52:49.205Z,81.85
2018-04-26T21:58:58.960Z,82.03
2018-04-26T22:05:08.912Z,82.22
2018-04-26T22:11:13.295Z,81.99
2018-04-26T22:17:17.640Z,81.24
2018-04-26T22:23:21.997Z,80.86
2018-04-26T22:29:26.388Z,80.56
2018-04-26T22:35:30.769Z,79.89
2018-04-26T22:41:35.342Z,77.91
2018-04-26T22:47:39.689Z,78.70
2018-04-26T22:53:44.035Z,79.43
2018-04-26T22:59:48.419Z,79.48
2018-04-26T23:05:52.788Z,79.59
2018-04-26T23:11:57.159Z,80.10
2018-04-26T23:18:01.625Z,79.17
2018-04-26T23:24:06.346Z,79.06
2018-04-26T23:30:10.727Z,79.54
2018-04-26T23:36:15.106Z,79.85
2018-04-26T23:42:19.490Z,79.23
2018-04-26T23:48:23.962Z,79.96
2018-04-26T23:54:28.313Z,80.71
